createdAt,value
2023-04-27T00:00:27.868Z,4.98
2023-04-27T00:01:27.583Z,4.98
2023-04-27T00:02:27.718Z,4.97
2023-04-27T00:03:27.693Z,4.97
2023-04-27T00:04:27.726Z,4.96
2023-04-27T00:05:27.603Z,4.96
2023-04-27T00:06:27.545Z,4.95
2023-04-27T00:07:27.870Z,4.94
2023-04-27T00:08:27.872Z,4.93
2023-04-27T00:09:27.480Z,4.92
2023-04-27T00:10:27.488Z,4.91
2023-04-27T00:11:27.462Z,4.90
2023-04-27T00:12:27.453Z,4.89
2023-04-27T00:13:27.453Z,4.88
2023-04-27T00:14:27.429Z,4.87
2023-04-27T00:15:27.402Z,4.87
2023-04-27T00:16:27.479Z,4.86
2023-04-27T00:17:27.401Z,4.85
2023-04-27T00:18:27.374Z,4.84
2023-04-27T00:19:27.353Z,4.83
2023-04-27T00:20:27.364Z,4.82
2023-04-27T00:21:27.340Z,4.81
2023-04-27T00:22:27.353Z,4.80
2023-04-27T00:23:27.302Z,4.80
2023-04-27T00:24:27.576Z,4.79
2023-04-27T00:25:27.280Z,4.79
2023-04-27T00:26:27.299Z,4.78
2023-04-27T00:27:27.275Z,4.77
2023-04-27T00:28:27.261Z,4.76
2023-04-27T00:29:27.246Z,4.75
2023-04-27T00:30:27.264Z,4.74
2023-04-27T00:31:27.698Z,4.73
2023-04-27T00:32:27.702Z,4.72
2023-04-27T00:33:27.199Z,4.71
2023-04-27T00:34:27.201Z,4.70
2023-04-27T00:35:27.166Z,4.68
2023-04-27T00:36:27.171Z,4.67
2023-04-27T00:37:27.172Z,4.67
2023-04-27T00:38:27.150Z,4.66
2023-04-27T00:39:27.126Z,4.67
2023-04-27T00:40:27.797Z,4.67
2023-04-27T00:41:27.110Z,4.67
2023-04-27T00:42:27.111Z,4.68
2023-04-27T00:43:27.421Z,4.68
2023-04-27T00:44:27.077Z,4.68
2023-04-27T00:45:27.047Z,4.68
2023-04-27T00:46:27.910Z,4.68
2023-04-27T00:47:27.051Z,4.68
2023-04-27T00:48:27.677Z,4.67
2023-04-27T00:49:27.027Z,4.67
2023-04-27T00:50:27.011Z,4.68
2023-04-27T00:51:26.995Z,4.68
2023-04-27T00:52:26.985Z,4.68
2023-04-27T00:53:26.966Z,4.68
2023-04-27T00:54:26.962Z,4.68
2023-04-27T00:55:27.362Z,4.67
2023-04-27T00:56:26.940Z,4.67
2023-04-27T00:57:26.920Z,4.66
2023-04-27T00:58:26.936Z,4.66
2023-04-27T00:59:26.971Z,4.66
2023-04-27T01:00:26.883Z,4.66
2023-04-27T01:01:27.056Z,4.66
2023-04-27T01:02:27.059Z,4.66
2023-04-27T01:03:27.024Z,4.66
2023-04-27T01:04:27.208Z,4.65
2023-04-27T01:05:26.826Z,4.64
2023-04-27T01:06:26.839Z,4.63
2023-04-27T01:07:27.047Z,4.63
2023-04-27T01:08:26.797Z,4.62
2023-04-27T01:09:26.788Z,4.62
2023-04-27T01:10:27.329Z,4.62
2023-04-27T01:11:26.740Z,4.61
2023-04-27T01:12:26.925Z,4.61
2023-04-27T01:13:26.751Z,4.60
2023-04-27T01:14:26.742Z,4.59
2023-04-27T01:15:26.711Z,4.59
2023-04-27T01:16:26.735Z,4.58
2023-04-27T01:17:26.754Z,4.57
2023-04-27T01:18:26.922Z,4.56
2023-04-27T01:19:26.729Z,4.55
2023-04-27T01:20:26.751Z,4.54
2023-04-27T01:21:26.620Z,4.53
2023-04-27T01:22:26.615Z,4.52
2023-04-27T01:23:26.595Z,4.51
2023-04-27T01:24:26.605Z,4.50
2023-04-27T01:25:26.608Z,4.50
2023-04-27T01:26:27.723Z,4.49
2023-04-27T01:27:26.550Z,4.49
2023-04-27T01:28:26.930Z,4.48
2023-04-27T01:29:26.539Z,4.47
2023-04-27T01:30:26.541Z,4.46
2023-04-27T01:31:26.841Z,4.46
2023-04-27T01:32:26.955Z,4.45
2023-04-27T01:33:26.582Z,4.45
2023-04-27T01:34:26.494Z,4.45
2023-04-27T01:35:28.264Z,4.45
2023-04-27T01:36:26.519Z,4.45
2023-04-27T01:37:26.452Z,4.44
2023-04-27T01:38:26.439Z,4.43
2023-04-27T01:39:26.548Z,4.43
2023-04-27T01:40:26.567Z,4.43
2023-04-27T01:41:26.396Z,4.43
2023-04-27T01:42:26.600Z,4.42
2023-04-27T01:43:26.510Z,4.42
2023-04-27T01:44:26.380Z,4.42
2023-04-27T01:45:26.351Z,4.42
2023-04-27T01:46:26.426Z,4.42
2023-04-27T01:47:26.465Z,4.42
2023-04-27T01:48:26.318Z,4.41
2023-04-27T01:49:26.297Z,4.41
2023-04-27T01:50:26.541Z,4.41
2023-04-27T01:51:26.565Z,4.41
2023-04-27T01:52:26.606Z,4.40
2023-04-27T01:53:26.250Z,4.40
2023-04-27T01:54:28.157Z,4.39
2023-04-27T01:55:26.690Z,4.39
2023-04-27T01:56:26.717Z,4.39
2023-04-27T01:57:26.199Z,4.38
2023-04-27T01:58:26.571Z,4.38
2023-04-27T01:59:26.825Z,4.38
2023-04-27T02:00:26.548Z,4.38
2023-04-27T02:01:26.256Z,4.37
2023-04-27T02:02:27.022Z,4.37
2023-04-27T02:03:26.298Z,4.36
2023-04-27T02:04:27.086Z,4.34
2023-04-27T02:05:26.284Z,4.33
2023-04-27T02:06:26.659Z,4.32
2023-04-27T02:07:26.864Z,4.30
2023-04-27T02:08:26.253Z,4.29
2023-04-27T02:09:26.064Z,4.28
2023-04-27T02:10:26.059Z,4.25
2023-04-27T02:11:26.633Z,4.23
2023-04-27T02:12:26.902Z,4.21
2023-04-27T02:13:26.791Z,4.19
2023-04-27T02:14:26.609Z,4.18
2023-04-27T02:15:25.994Z,4.16
2023-04-27T02:16:27.002Z,4.13
2023-04-27T02:17:25.968Z,4.10
2023-04-27T02:18:25.966Z,4.08
2023-04-27T02:19:25.946Z,4.06
2023-04-27T02:20:25.950Z,4.04
2023-04-27T02:21:25.916Z,4.02
2023-04-27T02:22:25.984Z,4.00
2023-04-27T02:23:25.983Z,3.99
2023-04-27T02:24:25.976Z,3.99
2023-04-27T02:25:25.883Z,3.99
2023-04-27T02:26:25.866Z,3.99
2023-04-27T02:27:25.875Z,3.99
2023-04-27T02:28:25.849Z,3.99
2023-04-27T02:29:25.974Z,3.99
2023-04-27T02:30:25.984Z,3.99
2023-04-27T02:31:25.869Z,3.99
2023-04-27T02:32:25.946Z,3.99
2023-04-27T02:33:25.787Z,3.98
2023-04-27T02:34:25.790Z,3.97
2023-04-27T02:35:25.895Z,3.97
2023-04-27T02:36:25.757Z,3.96
2023-04-27T02:37:25.759Z,3.94
2023-04-27T02:38:25.997Z,3.93
2023-04-27T02:39:25.974Z,3.91
2023-04-27T02:40:25.990Z,3.89
2023-04-27T02:41:25.991Z,3.88
2023-04-27T02:42:25.707Z,3.87
2023-04-27T02:43:25.662Z,3.86
2023-04-27T02:44:25.657Z,3.84
2023-04-27T02:45:25.668Z,3.84
2023-04-27T02:46:26.019Z,3.83
2023-04-27T02:47:26.011Z,3.82
2023-04-27T02:48:25.997Z,3.81
2023-04-27T02:49:25.995Z,3.80
2023-04-27T02:50:25.992Z,3.80
2023-04-27T02:51:25.580Z,3.79
2023-04-27T02:52:26.057Z,3.79
2023-04-27T02:53:25.582Z,3.78
2023-04-27T02:54:25.546Z,3.77
2023-04-27T02:55:25.569Z,3.76
2023-04-27T02:56:25.586Z,3.75
2023-04-27T02:57:25.509Z,3.74
2023-04-27T02:58:25.497Z,3.72
2023-04-27T02:59:25.513Z,3.68
2023-04-27T03:00:25.609Z,3.65
2023-04-27T03:01:25.505Z,3.62
2023-04-27T03:02:25.684Z,3.60
2023-04-27T03:03:25.802Z,3.58
2023-04-27T03:04:25.521Z,3.57
2023-04-27T03:05:25.417Z,3.56
2023-04-27T03:06:25.713Z,3.55
2023-04-27T03:07:25.405Z,3.54
2023-04-27T03:08:25.377Z,3.53
2023-04-27T03:09:25.759Z,3.50
2023-04-27T03:10:25.345Z,3.47
2023-04-27T03:11:25.450Z,3.43
2023-04-27T03:12:25.791Z,3.39
2023-04-27T03:13:25.340Z,3.36
2023-04-27T03:14:25.309Z,3.33
2023-04-27T03:15:25.315Z,3.32
2023-04-27T03:16:25.288Z,3.31
2023-04-27T03:17:25.290Z,3.30
2023-04-27T03:18:25.866Z,3.30
2023-04-27T03:19:25.876Z,3.30
2023-04-27T03:20:25.241Z,3.30
2023-04-27T03:21:25.228Z,3.30
2023-04-27T03:22:25.204Z,3.30
2023-04-27T03:23:25.205Z,3.30
2023-04-27T03:24:25.188Z,3.30
2023-04-27T03:25:25.192Z,3.30
2023-04-27T03:26:25.169Z,3.30
2023-04-27T03:27:25.446Z,3.31
2023-04-27T03:28:25.136Z,3.32
2023-04-27T03:29:25.141Z,3.32
2023-04-27T03:30:25.132Z,3.33
2023-04-27T03:31:25.143Z,3.34
2023-04-27T03:32:25.105Z,3.35
2023-04-27T03:33:25.221Z,3.36
2023-04-27T03:34:25.074Z,3.37
2023-04-27T03:35:25.699Z,3.38
2023-04-27T03:36:25.047Z,3.39
2023-04-27T03:37:25.057Z,3.39
2023-04-27T03:38:25.022Z,3.40
2023-04-27T03:39:25.031Z,3.40
2023-04-27T03:40:25.016Z,3.41
2023-04-27T03:41:25.004Z,3.41
2023-04-27T03:42:25.029Z,3.42
2023-04-27T03:43:25.032Z,3.43
2023-04-27T03:44:24.971Z,3.44
2023-04-27T03:45:24.981Z,3.45
2023-04-27T03:46:24.965Z,3.46
2023-04-27T03:47:24.952Z,3.47
2023-04-27T03:48:25.046Z,3.48
2023-04-27T03:49:24.918Z,3.48
2023-04-27T03:50:25.046Z,3.48
2023-04-27T03:51:25.043Z,3.49
2023-04-27T03:52:24.866Z,3.49
2023-04-27T03:53:24.863Z,3.49
2023-04-27T03:54:25.041Z,3.48
2023-04-27T03:55:24.854Z,3.47
2023-04-27T03:56:24.825Z,3.46
2023-04-27T03:57:25.047Z,3.46
2023-04-27T03:58:25.042Z,3.46
2023-04-27T03:59:25.055Z,3.47
2023-04-27T04:00:24.779Z,3.47
2023-04-27T04:01:24.805Z,3.48
2023-04-27T04:02:25.085Z,3.49
2023-04-27T04:03:25.147Z,3.49
2023-04-27T04:04:25.286Z,3.49
2023-04-27T04:05:24.746Z,3.48
2023-04-27T04:06:25.065Z,3.47
2023-04-27T04:07:25.053Z,3.46
2023-04-27T04:08:24.707Z,3.46
2023-04-27T04:09:24.686Z,3.46
2023-04-27T04:10:24.757Z,3.46
2023-04-27T04:11:24.664Z,3.46
2023-04-27T04:12:24.668Z,3.47
2023-04-27T04:13:24.628Z,3.47
2023-04-27T04:14:24.641Z,3.48
2023-04-27T04:15:24.652Z,3.48
2023-04-27T04:16:24.627Z,3.49
2023-04-27T04:17:24.641Z,3.50
2023-04-27T04:18:24.565Z,3.51
2023-04-27T04:19:24.712Z,3.51
2023-04-27T04:20:24.544Z,3.52
2023-04-27T04:21:24.541Z,3.52
2023-04-27T04:22:24.750Z,3.53
2023-04-27T04:23:24.775Z,3.54
2023-04-27T04:24:24.788Z,3.55
2023-04-27T04:25:24.506Z,3.55
2023-04-27T04:26:24.474Z,3.55
2023-04-27T04:27:24.494Z,3.56
2023-04-27T04:28:24.451Z,3.56
2023-04-27T04:29:24.458Z,3.57
2023-04-27T04:30:24.862Z,3.58
2023-04-27T04:31:24.938Z,3.58
2023-04-27T04:32:24.470Z,3.59
2023-04-27T04:33:24.406Z,3.60
2023-04-27T04:34:24.418Z,3.61
2023-04-27T04:35:24.382Z,3.61
2023-04-27T04:36:24.352Z,3.62
2023-04-27T04:37:24.382Z,3.63
2023-04-27T04:38:24.343Z,3.64
2023-04-27T04:39:24.984Z,3.65
2023-04-27T04:40:24.787Z,3.66
2023-04-27T04:41:24.337Z,3.67
2023-04-27T04:42:24.293Z,3.68
2023-04-27T04:43:24.314Z,3.69
2023-04-27T04:44:24.367Z,3.70
2023-04-27T04:45:24.273Z,3.71
2023-04-27T04:46:25.089Z,3.72
2023-04-27T04:47:25.096Z,3.73
2023-04-27T04:48:24.243Z,3.74
2023-04-27T04:49:24.216Z,3.75
2023-04-27T04:50:24.196Z,3.74
2023-04-27T04:51:24.212Z,3.73
2023-04-27T04:52:25.082Z,3.71
2023-04-27T04:53:24.187Z,3.70
2023-04-27T04:54:24.894Z,3.70
2023-04-27T04:55:24.162Z,3.70
2023-04-27T04:56:24.120Z,3.71
2023-04-27T04:57:24.127Z,3.72
2023-04-27T04:58:24.114Z,3.74
2023-04-27T04:59:24.106Z,3.76
2023-04-27T05:00:24.086Z,3.77
2023-04-27T05:01:24.148Z,3.79
2023-04-27T05:02:24.120Z,3.80
2023-04-27T05:03:24.204Z,3.81
2023-04-27T05:04:24.183Z,3.82
2023-04-27T05:05:24.032Z,3.84
2023-04-27T05:06:23.998Z,3.86
2023-04-27T05:07:25.059Z,3.89
2023-04-27T05:08:23.994Z,3.93
2023-04-27T05:09:23.983Z,3.97
2023-04-27T05:10:23.952Z,4.00
2023-04-27T05:11:24.575Z,4.03
2023-04-27T05:12:23.937Z,4.06
2023-04-27T05:13:23.954Z,4.09
2023-04-27T05:14:23.916Z,4.11
2023-04-27T05:15:23.934Z,4.14
2023-04-27T05:16:23.909Z,4.16
2023-04-27T05:17:23.915Z,4.17
2023-04-27T05:18:23.870Z,4.18
2023-04-27T05:19:24.113Z,4.19
2023-04-27T05:20:23.845Z,4.22
2023-04-27T05:21:23.841Z,4.26
2023-04-27T05:22:23.818Z,4.31
2023-04-27T05:23:23.816Z,4.35
2023-04-27T05:24:23.805Z,4.37
2023-04-27T05:25:23.803Z,4.39
2023-04-27T05:26:23.782Z,4.43
2023-04-27T05:27:24.559Z,4.50
2023-04-27T05:28:23.753Z,4.57
2023-04-27T05:29:23.754Z,4.66
2023-04-27T05:30:23.742Z,4.75
2023-04-27T05:31:23.738Z,4.81
2023-04-27T05:32:23.747Z,4.84
2023-04-27T05:33:23.705Z,4.86
2023-04-27T05:34:23.687Z,4.89
2023-04-27T05:35:23.771Z,4.91
2023-04-27T05:36:23.679Z,4.94
2023-04-27T05:37:23.657Z,4.97
2023-04-27T05:38:23.635Z,4.98
2023-04-27T05:39:23.649Z,5.00
2023-04-27T05:40:23.621Z,5.01
2023-04-27T05:41:23.623Z,5.03
2023-04-27T05:42:23.606Z,5.04
2023-04-27T05:43:23.912Z,5.05
2023-04-27T05:44:23.572Z,5.06
2023-04-27T05:45:23.610Z,5.08
2023-04-27T05:46:23.570Z,5.11
2023-04-27T05:47:23.555Z,5.14
2023-04-27T05:48:23.522Z,5.17
2023-04-27T05:49:23.570Z,5.20
2023-04-27T05:50:23.511Z,5.24
2023-04-27T05:51:23.771Z,5.31
2023-04-27T05:52:23.484Z,5.37
2023-04-27T05:53:23.504Z,5.44
2023-04-27T05:54:23.451Z,5.49
2023-04-27T05:55:23.467Z,5.55
2023-04-27T05:56:23.432Z,5.60
2023-04-27T05:57:23.429Z,5.65
2023-04-27T05:58:23.414Z,5.70
2023-04-27T05:59:24.039Z,5.74
2023-04-27T06:00:23.392Z,5.79
2023-04-27T06:01:23.401Z,5.83
2023-04-27T06:02:23.558Z,5.88
2023-04-27T06:03:23.633Z,5.93
2023-04-27T06:04:23.422Z,5.97
2023-04-27T06:05:23.401Z,6.00
2023-04-27T06:06:24.144Z,6.05
2023-04-27T06:07:24.240Z,6.13
2023-04-27T06:08:23.296Z,6.20
2023-04-27T06:09:23.303Z,6.29
2023-04-27T06:10:24.012Z,6.43
2023-04-27T06:11:23.269Z,6.59
2023-04-27T06:12:23.239Z,6.75
2023-04-27T06:13:23.254Z,6.89
2023-04-27T06:14:24.140Z,7.01
2023-04-27T06:15:24.068Z,7.10
2023-04-27T06:16:23.311Z,7.17
2023-04-27T06:17:23.210Z,7.24
2023-04-27T06:18:23.185Z,7.33
2023-04-27T06:19:23.179Z,7.41
2023-04-27T06:20:23.163Z,7.47
2023-04-27T06:21:23.150Z,7.51
2023-04-27T06:22:23.132Z,7.57
2023-04-27T06:23:23.171Z,7.65
2023-04-27T06:24:23.118Z,7.75
2023-04-27T06:25:25.928Z,7.84
2023-04-27T06:26:23.124Z,7.92
2023-04-27T06:27:23.115Z,7.99
2023-04-27T06:28:23.102Z,8.10
2023-04-27T06:29:23.060Z,8.23
2023-04-27T06:30:24.135Z,8.40
2023-04-27T06:31:23.220Z,8.60
2023-04-27T06:32:23.080Z,8.82
2023-04-27T06:33:23.015Z,9.04
2023-04-27T06:34:23.070Z,9.27
2023-04-27T06:35:24.024Z,9.50
2023-04-27T06:36:23.121Z,9.72
2023-04-27T06:37:23.003Z,9.93
2023-04-27T06:38:23.026Z,10.13
2023-04-27T06:39:23.096Z,10.33
2023-04-27T06:40:23.171Z,10.53
2023-04-27T06:41:22.981Z,10.71
2023-04-27T06:42:23.213Z,10.87
2023-04-27T06:43:22.912Z,11.03
2023-04-27T06:44:23.173Z,11.22
2023-04-27T06:45:23.181Z,11.42
2023-04-27T06:46:23.249Z,11.61
2023-04-27T06:47:23.193Z,11.78
2023-04-27T06:48:23.240Z,11.95
2023-04-27T06:49:22.931Z,12.04
2023-04-27T06:50:22.825Z,12.03
2023-04-27T06:51:22.832Z,12.03
2023-04-27T06:52:23.047Z,12.06
2023-04-27T06:53:22.796Z,12.14
2023-04-27T06:54:22.778Z,12.26
2023-04-27T06:55:22.770Z,12.39
2023-04-27T06:56:22.800Z,12.50
2023-04-27T06:57:22.744Z,12.61
2023-04-27T06:58:22.894Z,12.79
2023-04-27T06:59:22.903Z,12.98
2023-04-27T07:00:22.924Z,13.08
2023-04-27T07:01:22.735Z,13.17
2023-04-27T07:02:25.522Z,13.21
2023-04-27T07:03:22.752Z,13.21
2023-04-27T07:04:22.939Z,13.25
2023-04-27T07:05:22.647Z,13.31
2023-04-27T07:06:22.664Z,13.39
2023-04-27T07:07:22.628Z,13.48
2023-04-27T07:08:22.605Z,13.53
2023-04-27T07:09:27.510Z,13.55
2023-04-27T07:10:23.576Z,13.60
2023-04-27T07:11:22.552Z,13.67
2023-04-27T07:12:22.578Z,13.66
2023-04-27T07:13:22.547Z,13.64
2023-04-27T07:14:22.560Z,13.67
2023-04-27T07:15:23.121Z,13.72
2023-04-27T07:16:23.144Z,13.81
2023-04-27T07:17:23.260Z,13.90
2023-04-27T07:18:23.165Z,13.99
2023-04-27T07:19:22.465Z,14.06
2023-04-27T07:20:22.471Z,14.13
2023-04-27T07:21:22.435Z,14.20
2023-04-27T07:22:22.447Z,14.20
2023-04-27T07:23:22.485Z,14.12
2023-04-27T07:24:22.678Z,14.00
2023-04-27T07:25:22.396Z,13.85
2023-04-27T07:26:22.391Z,13.67
2023-04-27T07:27:22.765Z,13.52
2023-04-27T07:28:22.785Z,13.38
2023-04-27T07:29:27.101Z,13.28
2023-04-27T07:30:22.856Z,13.23
2023-04-27T07:31:22.892Z,13.21
2023-04-27T07:32:22.994Z,13.20
2023-04-27T07:33:22.439Z,13.19
2023-04-27T07:34:22.739Z,13.18
2023-04-27T07:35:22.359Z,13.16
2023-04-27T07:36:23.076Z,13.15
2023-04-27T07:37:23.136Z,13.13
2023-04-27T07:38:22.250Z,13.14
2023-04-27T07:39:22.256Z,13.17
2023-04-27T07:40:22.238Z,13.21
2023-04-27T07:41:22.203Z,13.23
2023-04-27T07:42:22.277Z,13.25
2023-04-27T07:43:22.194Z,13.29
2023-04-27T07:44:23.086Z,13.35
2023-04-27T07:45:22.364Z,13.44
2023-04-27T07:46:22.297Z,13.55
2023-04-27T07:47:22.222Z,13.68
2023-04-27T07:48:22.254Z,13.80
2023-04-27T07:49:22.108Z,13.90
2023-04-27T07:50:22.133Z,13.97
2023-04-27T07:51:22.108Z,14.01
2023-04-27T07:52:22.098Z,14.04
2023-04-27T07:53:22.069Z,14.06
2023-04-27T07:54:22.229Z,14.08
2023-04-27T07:55:22.058Z,14.10
2023-04-27T07:56:22.061Z,14.12
2023-04-27T07:57:22.224Z,14.14
2023-04-27T07:58:22.240Z,14.12
2023-04-27T07:59:22.235Z,14.08
2023-04-27T08:00:22.241Z,14.04
2023-04-27T08:01:21.972Z,14.04
2023-04-27T08:02:22.163Z,14.08
2023-04-27T08:03:22.191Z,14.11
2023-04-27T08:04:22.376Z,14.14
2023-04-27T08:05:22.188Z,14.18
2023-04-27T08:06:22.261Z,14.23
2023-04-27T08:07:22.250Z,14.25
2023-04-27T08:08:21.935Z,14.26
2023-04-27T08:09:21.889Z,14.29
2023-04-27T08:10:21.891Z,14.32
2023-04-27T08:11:21.843Z,14.31
2023-04-27T08:12:21.872Z,14.31
2023-04-27T08:13:23.185Z,14.33
2023-04-27T08:14:21.848Z,14.33
2023-04-27T08:15:21.829Z,14.31
2023-04-27T08:16:21.858Z,14.27
2023-04-27T08:17:21.799Z,14.22
2023-04-27T08:18:21.802Z,14.21
2023-04-27T08:19:21.784Z,14.24
2023-04-27T08:20:21.824Z,14.30
2023-04-27T08:21:21.796Z,14.35
2023-04-27T08:22:21.768Z,14.39
2023-04-27T08:23:21.758Z,14.42
2023-04-27T08:24:21.725Z,14.43
2023-04-27T08:25:21.706Z,14.43
2023-04-27T08:26:22.482Z,14.47
2023-04-27T08:27:21.740Z,14.48
2023-04-27T08:28:21.705Z,14.46
2023-04-27T08:29:27.877Z,14.42
2023-04-27T08:30:22.666Z,14.37
2023-04-27T08:31:21.661Z,14.36
2023-04-27T08:32:21.650Z,14.36
2023-04-27T08:33:21.649Z,14.37
2023-04-27T08:34:21.636Z,14.38
2023-04-27T08:35:21.607Z,14.38
2023-04-27T08:36:21.638Z,14.37
2023-04-27T08:37:21.578Z,14.30
2023-04-27T08:38:23.155Z,14.18
2023-04-27T08:39:21.533Z,14.10
2023-04-27T08:40:21.548Z,14.05
2023-04-27T08:41:22.368Z,14.02
2023-04-27T08:42:21.539Z,13.99
2023-04-27T08:43:21.518Z,13.97
2023-04-27T08:44:21.512Z,13.96
2023-04-27T08:45:21.465Z,13.96
2023-04-27T08:46:21.543Z,13.96
2023-04-27T08:47:31.175Z,13.95
2023-04-27T08:48:22.513Z,13.92
2023-04-27T08:49:21.907Z,13.84
2023-04-27T08:50:21.645Z,13.78
2023-04-27T08:51:22.857Z,13.80
2023-04-27T08:52:21.700Z,13.85
2023-04-27T08:53:21.737Z,13.93
2023-04-27T08:54:21.379Z,14.00
2023-04-27T08:55:21.814Z,14.05
2023-04-27T08:56:21.825Z,14.06
2023-04-27T08:57:21.345Z,14.06
2023-04-27T08:58:21.544Z,14.05
2023-04-27T08:59:21.916Z,14.05
2023-04-27T09:00:21.398Z,14.06
2023-04-27T09:01:21.320Z,14.04
2023-04-27T09:02:22.052Z,14.00
2023-04-27T09:03:21.430Z,13.97
2023-04-27T09:04:21.584Z,13.92
2023-04-27T09:05:22.134Z,13.89
2023-04-27T09:06:21.284Z,13.85
2023-04-27T09:07:21.235Z,13.81
2023-04-27T09:08:21.220Z,13.75
2023-04-27T09:09:21.213Z,13.71
2023-04-27T09:10:22.125Z,13.72
2023-04-27T09:11:21.282Z,13.74
2023-04-27T09:12:21.214Z,13.76
2023-04-27T09:13:21.613Z,13.77
2023-04-27T09:14:21.244Z,13.79
2023-04-27T09:15:21.799Z,13.81
2023-04-27T09:16:21.185Z,13.83
2023-04-27T09:17:21.155Z,13.88
2023-04-27T09:18:21.840Z,13.93
2023-04-27T09:19:21.068Z,13.94
2023-04-27T09:20:21.379Z,13.92
2023-04-27T09:21:21.249Z,13.87
2023-04-27T09:22:21.033Z,13.79
2023-04-27T09:23:21.871Z,13.72
2023-04-27T09:24:21.770Z,13.67
2023-04-27T09:25:22.185Z,13.63
2023-04-27T09:26:21.018Z,13.59
2023-04-27T09:27:21.002Z,13.55
2023-04-27T09:28:21.888Z,13.55
2023-04-27T09:29:21.004Z,13.58
2023-04-27T09:30:21.007Z,13.65
2023-04-27T09:31:21.012Z,13.72
2023-04-27T09:32:21.192Z,13.79
2023-04-27T09:33:20.974Z,13.83
2023-04-27T09:34:21.005Z,13.85
2023-04-27T09:35:20.888Z,13.90
2023-04-27T09:36:20.876Z,13.95
2023-04-27T09:37:21.019Z,14.00
2023-04-27T09:38:21.053Z,14.04
2023-04-27T09:39:21.049Z,14.06
2023-04-27T09:40:20.882Z,14.09
2023-04-27T09:41:21.068Z,14.14
2023-04-27T09:42:20.808Z,14.20
2023-04-27T09:43:21.104Z,14.23
2023-04-27T09:44:20.799Z,14.24
2023-04-27T09:45:21.134Z,14.23
2023-04-27T09:46:20.807Z,14.23
2023-04-27T09:47:21.171Z,14.25
2023-04-27T09:48:20.736Z,14.27
2023-04-27T09:49:20.702Z,14.27
2023-04-27T09:50:20.732Z,14.25
2023-04-27T09:51:20.686Z,14.22
2023-04-27T09:52:20.676Z,14.22
2023-04-27T09:53:20.671Z,14.24
2023-04-27T09:54:20.676Z,14.27
2023-04-27T09:55:20.669Z,14.29
2023-04-27T09:56:20.650Z,14.33
2023-04-27T09:57:20.624Z,14.37
2023-04-27T09:58:20.650Z,14.40
2023-04-27T09:59:20.591Z,14.43
2023-04-27T10:00:20.655Z,14.46
2023-04-27T10:01:20.594Z,14.50
2023-04-27T10:02:25.232Z,14.55
2023-04-27T10:03:22.539Z,14.61
2023-04-27T10:04:20.819Z,14.65
2023-04-27T10:05:20.634Z,14.69
2023-04-27T10:06:20.547Z,14.73
2023-04-27T10:07:20.498Z,14.78
2023-04-27T10:08:20.494Z,14.80
2023-04-27T10:09:21.339Z,14.80
2023-04-27T10:10:20.650Z,14.77
2023-04-27T10:11:20.479Z,14.74
2023-04-27T10:12:20.469Z,14.73
2023-04-27T10:13:21.329Z,14.74
2023-04-27T10:14:20.449Z,14.74
2023-04-27T10:15:20.429Z,14.75
2023-04-27T10:16:20.452Z,14.74
2023-04-27T10:17:20.389Z,14.70
2023-04-27T10:18:20.380Z,14.66
2023-04-27T10:19:20.359Z,14.64
2023-04-27T10:20:20.385Z,14.62
2023-04-27T10:21:20.328Z,14.62
2023-04-27T10:22:20.339Z,14.63
2023-04-27T10:23:20.320Z,14.61
2023-04-27T10:24:20.314Z,14.56
2023-04-27T10:25:20.277Z,14.53
2023-04-27T10:26:20.298Z,14.52
2023-04-27T10:27:20.299Z,14.52
2023-04-27T10:28:20.272Z,14.52
2023-04-27T10:29:20.239Z,14.52
2023-04-27T10:30:20.248Z,14.54
2023-04-27T10:31:20.274Z,14.55
2023-04-27T10:32:20.222Z,14.55
2023-04-27T10:33:20.195Z,14.55
2023-04-27T10:34:21.473Z,14.54
2023-04-27T10:35:20.189Z,14.51
2023-04-27T10:36:20.176Z,14.47
2023-04-27T10:37:20.164Z,14.46
2023-04-27T10:38:20.150Z,14.46
2023-04-27T10:39:20.154Z,14.48
2023-04-27T10:40:20.155Z,14.50
2023-04-27T10:41:20.197Z,14.51
2023-04-27T10:42:20.102Z,14.51
2023-04-27T10:43:20.073Z,14.52
2023-04-27T10:44:20.361Z,14.52
2023-04-27T10:45:20.071Z,14.51
2023-04-27T10:46:20.100Z,14.50
2023-04-27T10:47:20.035Z,14.49
2023-04-27T10:48:20.048Z,14.49
2023-04-27T10:49:20.017Z,14.50
2023-04-27T10:50:20.039Z,14.51
2023-04-27T10:51:19.994Z,14.53
2023-04-27T10:52:20.000Z,14.55
2023-04-27T10:53:19.967Z,14.56
2023-04-27T10:54:19.981Z,14.56
2023-04-27T10:55:19.954Z,14.57
2023-04-27T10:56:19.969Z,14.58
2023-04-27T10:57:19.927Z,14.59
2023-04-27T10:58:19.932Z,14.60
2023-04-27T10:59:19.894Z,14.61
2023-04-27T11:00:19.913Z,14.61
2023-04-27T11:01:19.914Z,14.60
2023-04-27T11:02:19.967Z,14.60
2023-04-27T11:03:20.013Z,14.60
2023-04-27T11:04:19.904Z,14.60
2023-04-27T11:05:19.829Z,14.61
2023-04-27T11:06:19.829Z,14.61
2023-04-27T11:07:19.799Z,14.61
2023-04-27T11:08:19.803Z,14.60
2023-04-27T11:09:19.829Z,14.59
2023-04-27T11:10:19.823Z,14.57
2023-04-27T11:11:19.773Z,14.57
2023-04-27T11:12:19.764Z,14.58
2023-04-27T11:13:19.748Z,14.58
2023-04-27T11:14:19.757Z,14.57
2023-04-27T11:15:19.718Z,14.54
2023-04-27T11:16:19.745Z,14.51
2023-04-27T11:17:19.772Z,14.47
2023-04-27T11:18:19.683Z,14.42
2023-04-27T11:19:19.667Z,14.38
2023-04-27T11:20:19.652Z,14.34
2023-04-27T11:21:19.669Z,14.31
2023-04-27T11:22:19.629Z,14.30
2023-04-27T11:23:19.639Z,14.29
2023-04-27T11:24:19.619Z,14.28
2023-04-27T11:25:19.607Z,14.26
2023-04-27T11:26:19.609Z,14.24
2023-04-27T11:27:20.401Z,14.24
2023-04-27T11:28:19.574Z,14.24
2023-04-27T11:29:19.570Z,14.25
2023-04-27T11:30:19.538Z,14.26
2023-04-27T11:31:19.599Z,14.27
2023-04-27T11:32:20.589Z,14.27
2023-04-27T11:33:19.520Z,14.26
2023-04-27T11:34:20.552Z,14.25
2023-04-27T11:35:19.492Z,14.24
2023-04-27T11:36:19.479Z,14.24
2023-04-27T11:37:19.515Z,14.25
2023-04-27T11:38:19.455Z,14.27
2023-04-27T11:39:19.589Z,14.29
2023-04-27T11:40:19.425Z,14.30
2023-04-27T11:41:19.420Z,14.32
2023-04-27T11:42:19.420Z,14.35
2023-04-27T11:43:19.400Z,14.38
2023-04-27T11:44:19.387Z,14.41
2023-04-27T11:45:19.385Z,14.44
2023-04-27T11:46:19.403Z,14.45
2023-04-27T11:47:19.386Z,14.47
2023-04-27T11:48:19.322Z,14.50
2023-04-27T11:49:19.343Z,14.53
2023-04-27T11:50:19.309Z,14.56
2023-04-27T11:51:19.315Z,14.57
2023-04-27T11:52:19.299Z,14.58
2023-04-27T11:53:19.283Z,14.57
2023-04-27T11:54:19.267Z,14.55
2023-04-27T11:55:19.263Z,14.53
2023-04-27T11:56:19.242Z,14.52
2023-04-27T11:57:19.262Z,14.50
2023-04-27T11:58:19.207Z,14.48
2023-04-27T11:59:19.222Z,14.46
2023-04-27T12:00:19.182Z,14.45
2023-04-27T12:01:30.898Z,14.44
2023-04-27T12:02:20.474Z,14.43
2023-04-27T12:03:19.373Z,14.43
2023-04-27T12:04:19.628Z,14.43
2023-04-27T12:05:19.232Z,14.44
2023-04-27T12:07:19.165Z,14.43
2023-04-27T12:08:19.121Z,14.44
2023-04-27T12:09:19.119Z,14.44
2023-04-27T12:10:19.114Z,14.45
2023-04-27T12:11:19.097Z,14.46
2023-04-27T12:12:19.075Z,14.46
2023-04-27T12:13:19.079Z,14.47
2023-04-27T12:14:19.041Z,14.46
2023-04-27T12:15:19.081Z,14.46
2023-04-27T12:16:19.033Z,14.47
2023-04-27T12:17:19.050Z,14.49
2023-04-27T12:18:19.035Z,14.52
2023-04-27T12:19:19.260Z,14.53
2023-04-27T12:20:18.985Z,14.54
2023-04-27T12:21:19.020Z,14.56
2023-04-27T12:22:18.988Z,14.57
2023-04-27T12:23:18.965Z,14.60
2023-04-27T12:24:18.931Z,14.62
2023-04-27T12:25:18.941Z,14.64
2023-04-27T12:26:18.890Z,14.64
2023-04-27T12:27:18.940Z,14.65
2023-04-27T12:28:18.879Z,14.66
2023-04-27T12:29:18.879Z,14.67
2023-04-27T12:30:19.406Z,14.69
2023-04-27T12:31:19.445Z,14.70
2023-04-27T12:32:18.850Z,14.71
2023-04-27T12:33:18.902Z,14.72
2023-04-27T12:34:18.829Z,14.73
2023-04-27T12:35:18.821Z,14.73
2023-04-27T12:36:18.834Z,14.73
2023-04-27T12:37:18.787Z,14.74
2023-04-27T12:38:18.982Z,14.75
2023-04-27T12:39:18.755Z,14.75
2023-04-27T12:40:18.748Z,14.77
2023-04-27T12:41:18.751Z,14.78
2023-04-27T12:42:18.751Z,14.80
2023-04-27T12:43:18.709Z,14.80
2023-04-27T12:44:18.688Z,14.81
2023-04-27T12:45:18.709Z,14.82
2023-04-27T12:46:18.746Z,14.83
2023-04-27T12:47:40.588Z,14.84
2023-04-27T12:48:19.716Z,14.85
2023-04-27T12:49:18.653Z,14.87
2023-04-27T12:50:19.332Z,14.88
2023-04-27T12:51:18.638Z,14.88
2023-04-27T12:52:18.618Z,14.88
2023-04-27T12:53:18.632Z,14.88
2023-04-27T12:54:18.582Z,14.87
2023-04-27T12:55:31.499Z,14.86
2023-04-27T12:56:19.540Z,14.85
2023-04-27T12:57:18.859Z,14.86
2023-04-27T12:58:18.535Z,14.86
2023-04-27T12:59:18.542Z,14.86
2023-04-27T13:00:18.512Z,14.86
2023-04-27T13:01:18.551Z,14.85
2023-04-27T13:02:18.538Z,14.83
2023-04-27T13:03:18.623Z,14.81
2023-04-27T13:04:19.421Z,14.81
2023-04-27T13:05:18.478Z,14.81
2023-04-27T13:06:18.470Z,14.81